createdAt,value
2018-12-29T00:01:02.126Z,1.10
2018-12-29T00:03:30.888Z,1.10
2018-12-29T00:05:59.833Z,1.10
2018-12-29T00:08:28.602Z,1.10
2018-12-29T00:10:57.382Z,1.10
2018-12-29T00:13:26.157Z,1.10
2018-12-29T00:15:54.946Z,1.00
2018-12-29T00:18:24.069Z,1.00
2018-12-29T00:20:52.845Z,1.00
2018-12-29T00:23:21.616Z,1.00
2018-12-29T00:25:50.695Z,1.00
2018-12-29T00:28:19.529Z,1.00
2018-12-29T00:30:48.409Z,0.90
2018-12-29T00:33:17.262Z,0.90
2018-12-29T00:35:46.433Z,0.90
2018-12-29T00:38:15.764Z,0.90
2018-12-29T00:40:44.530Z,0.90
2018-12-29T00:43:13.610Z,0.90
2018-12-29T00:45:42.374Z,1.00
2018-12-29T00:48:11.503Z,1.00
2018-12-29T00:50:40.576Z,1.00
2018-12-29T00:53:09.375Z,1.00
2018-12-29T00:55:38.153Z,1.00
2018-12-29T00:58:06.936Z,1.00
2018-12-29T01:00:35.765Z,1.00
2018-12-29T01:03:04.646Z,1.00
2018-12-29T01:05:33.416Z,0.90
2018-12-29T01:08:02.283Z,0.90
2018-12-29T01:10:31.045Z,0.90
2018-12-29T01:12:59.857Z,0.90
2018-12-29T01:15:28.848Z,1.00
2018-12-29T01:17:57.866Z,1.00
2018-12-29T01:20:26.706Z,1.00
2018-12-29T01:22:55.799Z,1.00
2018-12-29T01:25:24.561Z,1.00
2018-12-29T01:27:53.325Z,1.00
2018-12-29T01:30:22.113Z,1.00
2018-12-29T01:32:50.892Z,1.00
2018-12-29T01:35:19.669Z,1.00
2018-12-29T01:37:48.447Z,1.00
2018-12-29T01:40:17.291Z,1.00
2018-12-29T01:42:46.137Z,1.00
2018-12-29T01:45:17.598Z,1.00
2018-12-29T01:47:47.002Z,1.00
2018-12-29T01:50:15.941Z,1.00
2018-12-29T01:52:44.723Z,1.00
2018-12-29T01:55:13.514Z,1.00
2018-12-29T01:57:42.280Z,1.00
2018-12-29T02:00:11.228Z,1.00
2018-12-29T02:02:40.175Z,1.00
2018-12-29T02:05:12.568Z,1.00
2018-12-29T02:07:41.443Z,1.00
2018-12-29T02:10:10.329Z,1.00
2018-12-29T02:12:39.374Z,0.90
2018-12-29T02:15:08.226Z,0.90
2018-12-29T02:17:37.018Z,0.90
2018-12-29T02:20:06.150Z,0.90
2018-12-29T02:22:35.428Z,0.90
2018-12-29T02:25:04.590Z,0.90
2018-12-29T02:27:33.374Z,0.90
2018-12-29T02:30:02.570Z,0.90
2018-12-29T02:32:31.953Z,0.90
2018-12-29T02:35:01.057Z,0.90
2018-12-29T02:37:29.826Z,0.80
2018-12-29T02:39:58.598Z,0.80
2018-12-29T02:42:27.461Z,0.80
2018-12-29T02:44:56.825Z,0.80
2018-12-29T02:47:25.623Z,0.80
2018-12-29T02:49:54.399Z,0.90
2018-12-29T02:52:23.177Z,0.90
2018-12-29T02:54:51.988Z,0.90
2018-12-29T02:57:21.060Z,0.90
2018-12-29T02:59:49.836Z,0.90
2018-12-29T03:02:18.949Z,0.90
2018-12-29T03:04:47.745Z,0.90
2018-12-29T03:07:16.505Z,0.90
2018-12-29T03:09:45.297Z,0.90
2018-12-29T03:12:14.066Z,0.90
2018-12-29T03:14:42.849Z,0.90
2018-12-29T03:17:11.621Z,1.00
2018-12-29T03:19:40.414Z,1.00
2018-12-29T03:22:09.193Z,0.90
2018-12-29T03:24:37.982Z,0.90
2018-12-29T03:27:06.745Z,1.00
2018-12-29T03:29:35.535Z,1.00
2018-12-29T03:32:04.831Z,1.00
2018-12-29T03:34:33.701Z,1.00
2018-12-29T03:37:02.469Z,1.00
2018-12-29T03:39:31.733Z,0.90
2018-12-29T03:42:00.505Z,0.90
2018-12-29T03:44:29.574Z,0.90
2018-12-29T03:46:58.656Z,0.90
2018-12-29T03:49:27.740Z,0.90
2018-12-29T03:51:56.522Z,0.90
2018-12-29T03:54:25.361Z,0.90
2018-12-29T03:56:54.145Z,0.90
2018-12-29T03:59:22.917Z,0.90
2018-12-29T04:01:51.719Z,0.90
2018-12-29T04:04:20.494Z,0.90
2018-12-29T04:06:49.273Z,0.90
2018-12-29T04:09:34.464Z,0.90
2018-12-29T04:12:09.319Z,0.90
2018-12-29T04:14:38.154Z,0.90
2018-12-29T04:17:06.950Z,0.90
2018-12-29T04:19:35.794Z,0.90
2018-12-29T04:22:04.728Z,0.90
2018-12-29T04:24:33.490Z,0.90
2018-12-29T04:27:02.270Z,0.90
2018-12-29T04:29:31.143Z,0.90
2018-12-29T04:32:00.187Z,0.90
2018-12-29T04:34:28.958Z,0.90
2018-12-29T04:36:57.749Z,0.90
2018-12-29T04:39:26.524Z,0.90
2018-12-29T04:41:55.293Z,0.90
2018-12-29T04:44:24.071Z,0.90
2018-12-29T04:46:52.919Z,0.90
2018-12-29T04:49:22.016Z,0.90
2018-12-29T04:51:50.890Z,0.90
2018-12-29T04:54:19.697Z,0.90
2018-12-29T04:56:48.705Z,0.90
2018-12-29T04:59:17.494Z,0.90
2018-12-29T05:01:46.329Z,1.00
2018-12-29T05:04:15.197Z,0.90
2018-12-29T05:06:44.009Z,1.00
2018-12-29T05:09:13.376Z,1.00
2018-12-29T05:11:42.162Z,0.90
2018-12-29T05:14:11.043Z,0.90
2018-12-29T05:16:40.057Z,0.90
2018-12-29T05:19:08.859Z,1.00
2018-12-29T05:21:37.665Z,1.00
2018-12-29T05:24:06.487Z,1.00
2018-12-29T05:26:35.502Z,1.00
2018-12-29T05:29:04.374Z,1.00
2018-12-29T05:31:33.172Z,1.00
2018-12-29T05:34:01.967Z,1.00
2018-12-29T05:36:30.763Z,1.00
2018-12-29T05:38:59.541Z,1.00
2018-12-29T05:41:28.335Z,1.00
2018-12-29T05:43:57.109Z,1.00
2018-12-29T05:46:25.987Z,1.00
2018-12-29T05:48:54.781Z,1.00
2018-12-29T05:51:23.575Z,1.00
2018-12-29T05:53:52.997Z,1.00
2018-12-29T05:56:22.178Z,1.00
2018-12-29T05:58:50.954Z,1.00
2018-12-29T06:01:19.737Z,1.00
2018-12-29T06:03:48.521Z,1.00
2018-12-29T06:06:17.603Z,1.00
2018-12-29T06:08:46.713Z,1.00
2018-12-29T06:11:15.506Z,1.00
2018-12-29T06:13:44.273Z,1.00
2018-12-29T06:16:13.057Z,1.00
2018-12-29T06:18:41.906Z,1.00
2018-12-29T06:21:10.720Z,1.00
2018-12-29T06:23:39.490Z,1.00
2018-12-29T06:26:08.273Z,1.00
2018-12-29T06:28:37.377Z,1.00
2018-12-29T06:31:06.182Z,1.10
2018-12-29T06:33:34.970Z,1.10
2018-12-29T06:36:03.754Z,1.10
2018-12-29T06:38:32.522Z,1.10
2018-12-29T06:41:01.323Z,1.10
2018-12-29T06:43:30.100Z,1.10
2018-12-29T06:45:58.961Z,1.10
2018-12-29T06:48:27.806Z,1.10
2018-12-29T06:50:56.590Z,1.10
2018-12-29T06:53:25.364Z,1.10
2018-12-29T06:55:54.149Z,1.20
2018-12-29T06:58:23.257Z,1.20
2018-12-29T07:00:52.128Z,1.20
2018-12-29T07:03:20.914Z,1.10
2018-12-29T07:05:49.736Z,1.10
2018-12-29T07:08:18.525Z,1.20
2018-12-29T07:10:47.606Z,1.20
2018-12-29T07:13:16.385Z,1.20
2018-12-29T07:15:45.149Z,1.10
2018-12-29T07:18:13.928Z,1.20
2018-12-29T07:20:42.787Z,1.20
2018-12-29T07:23:11.569Z,1.20
2018-12-29T07:25:40.348Z,1.20
2018-12-29T07:28:09.138Z,1.20
2018-12-29T07:30:37.922Z,1.20
2018-12-29T07:33:06.747Z,1.20
2018-12-29T07:35:35.839Z,1.20
2018-12-29T07:38:04.934Z,1.20
2018-12-29T07:40:33.743Z,1.20
2018-12-29T07:43:02.628Z,1.20
2018-12-29T07:45:31.539Z,1.20
2018-12-29T07:48:00.470Z,1.20
2018-12-29T07:50:29.305Z,1.20
2018-12-29T07:52:58.378Z,1.20
2018-12-29T07:55:27.154Z,1.20
2018-12-29T07:57:55.942Z,1.30
2018-12-29T08:00:24.731Z,1.30
2018-12-29T08:02:53.798Z,1.30
2018-12-29T08:05:22.713Z,1.30
2018-12-29T08:07:51.885Z,1.30
2018-12-29T08:10:20.669Z,1.40
2018-12-29T08:12:49.503Z,1.40
2018-12-29T08:15:18.273Z,1.50
2018-12-29T08:17:47.062Z,1.50
2018-12-29T08:20:16.123Z,1.50
2018-12-29T08:22:45.276Z,1.60
2018-12-29T08:25:33.283Z,1.60
2018-12-29T08:28:02.101Z,1.60
2018-12-29T08:30:31.246Z,1.70
2018-12-29T08:33:00.084Z,1.80
2018-12-29T08:35:28.881Z,1.80
2018-12-29T08:37:57.681Z,1.90
2018-12-29T08:40:26.438Z,1.90
2018-12-29T08:42:55.302Z,2.00
2018-12-29T08:45:24.158Z,2.00
2018-12-29T08:47:52.946Z,2.00
2018-12-29T08:50:21.781Z,2.00
2018-12-29T08:52:50.589Z,2.10
2018-12-29T08:55:19.369Z,2.10
2018-12-29T08:57:48.181Z,2.10
2018-12-29T09:00:16.978Z,2.10
2018-12-29T09:02:45.752Z,2.10
2018-12-29T09:05:14.533Z,2.10
2018-12-29T09:07:43.338Z,2.10
2018-12-29T09:10:12.131Z,2.10
2018-12-29T09:12:40.896Z,2.10
2018-12-29T09:15:09.685Z,2.10
2018-12-29T09:17:38.697Z,2.10
2018-12-29T09:20:07.674Z,2.20
2018-12-29T09:22:36.516Z,2.20
2018-12-29T09:25:05.322Z,2.20
2018-12-29T09:27:34.421Z,2.20
2018-12-29T09:30:03.314Z,2.30
2018-12-29T09:32:32.414Z,2.40
2018-12-29T09:35:01.204Z,2.40
2018-12-29T09:37:29.964Z,2.50
2018-12-29T09:39:59.225Z,2.60
2018-12-29T09:42:28.014Z,2.60
2018-12-29T09:44:57.154Z,2.70
2018-12-29T09:47:26.566Z,2.70
2018-12-29T09:49:55.364Z,2.70
2018-12-29T09:52:24.153Z,2.70
2018-12-29T09:54:52.935Z,2.70
2018-12-29T09:57:21.715Z,2.70
2018-12-29T09:59:50.831Z,2.80
2018-12-29T10:02:19.638Z,2.80
2018-12-29T10:04:48.710Z,2.90
2018-12-29T10:07:17.796Z,2.90
2018-12-29T10:09:46.822Z,3.00
2018-12-29T10:12:15.593Z,3.10
2018-12-29T10:14:44.457Z,3.20
2018-12-29T10:17:13.234Z,3.20
2018-12-29T10:19:42.029Z,3.20
2018-12-29T10:22:10.813Z,3.30
2018-12-29T10:24:40.261Z,3.30
2018-12-29T10:27:09.170Z,3.30
2018-12-29T10:29:37.995Z,3.30
2018-12-29T10:32:06.865Z,3.30
2018-12-29T10:34:35.661Z,3.30
2018-12-29T10:37:04.745Z,3.30
2018-12-29T10:39:33.577Z,3.30
2018-12-29T10:42:02.433Z,3.40
2018-12-29T10:44:31.209Z,3.40
2018-12-29T10:47:00.003Z,3.50
2018-12-29T10:49:28.777Z,3.60
2018-12-29T10:51:57.670Z,3.60
2018-12-29T10:54:26.631Z,3.60
2018-12-29T10:56:55.534Z,3.70
2018-12-29T10:59:24.556Z,3.80
2018-12-29T11:01:53.397Z,3.80
2018-12-29T11:04:22.261Z,3.80
2018-12-29T11:06:51.682Z,3.90
2018-12-29T11:09:39.913Z,3.90
2018-12-29T11:12:08.815Z,3.90
2018-12-29T11:14:37.673Z,4.00
2018-12-29T11:17:06.506Z,3.90
2018-12-29T11:19:35.522Z,3.90
2018-12-29T11:22:04.406Z,3.90
2018-12-29T11:24:33.194Z,4.00
2018-12-29T11:27:01.993Z,4.00
2018-12-29T11:29:30.869Z,3.90
2018-12-29T11:31:59.722Z,3.90
2018-12-29T11:34:28.489Z,3.90
2018-12-29T11:36:57.274Z,3.90
2018-12-29T11:39:26.396Z,3.90
2018-12-29T11:41:55.261Z,3.90
2018-12-29T11:44:24.091Z,4.00
2018-12-29T11:46:52.869Z,4.00
2018-12-29T11:49:21.730Z,4.00
2018-12-29T11:51:50.513Z,4.00
2018-12-29T11:54:19.316Z,4.00
2018-12-29T11:56:48.106Z,4.10
2018-12-29T11:59:16.878Z,4.00
2018-12-29T12:01:45.668Z,4.00
2018-12-29T12:04:14.450Z,3.90
2018-12-29T12:06:43.311Z,4.00
2018-12-29T12:09:12.242Z,4.00
2018-12-29T12:11:41.021Z,4.00
2018-12-29T12:14:09.862Z,4.10
2018-12-29T12:16:38.645Z,4.10
2018-12-29T12:19:07.495Z,4.20
2018-12-29T12:21:37.126Z,4.20
2018-12-29T12:24:05.992Z,4.20
2018-12-29T12:26:34.821Z,4.30
2018-12-29T12:29:03.673Z,4.30
2018-12-29T12:31:33.022Z,4.30
2018-12-29T12:34:01.998Z,4.40
2018-12-29T12:36:31.053Z,4.50
2018-12-29T12:38:59.904Z,4.40
2018-12-29T12:41:29.233Z,4.40
2018-12-29T12:43:58.461Z,4.40
2018-12-29T12:46:27.549Z,4.40
2018-12-29T12:48:57.018Z,4.30
2018-12-29T12:51:25.793Z,4.30
2018-12-29T12:53:54.588Z,4.30
2018-12-29T12:56:23.364Z,4.30
2018-12-29T12:58:52.165Z,4.30
2018-12-29T13:01:21.430Z,4.30
2018-12-29T13:03:50.626Z,4.30
2018-12-29T13:06:19.406Z,4.40
2018-12-29T13:08:48.337Z,4.40
2018-12-29T13:11:17.150Z,4.30
2018-12-29T13:13:45.956Z,4.30
2018-12-29T13:16:15.127Z,4.20
2018-12-29T13:18:44.069Z,4.20
2018-12-29T13:21:12.925Z,4.20
2018-12-29T13:23:41.850Z,4.20
2018-12-29T13:26:10.655Z,4.10
2018-12-29T13:28:39.512Z,4.10
2018-12-29T13:31:08.412Z,4.20
2018-12-29T13:33:37.251Z,4.20
2018-12-29T13:36:06.681Z,4.20
2018-12-29T13:38:35.515Z,4.20
2018-12-29T13:41:04.359Z,4.30
2018-12-29T13:43:33.273Z,4.30
2018-12-29T13:46:02.249Z,4.30
2018-12-29T13:48:31.158Z,4.30
2018-12-29T13:51:00.061Z,4.30
2018-12-29T13:53:29.099Z,4.30
2018-12-29T13:55:57.976Z,4.30
2018-12-29T13:58:26.812Z,4.30
2018-12-29T14:00:56.247Z,4.30
2018-12-29T14:03:25.069Z,4.20
2018-12-29T14:05:54.087Z,4.20
2018-12-29T14:08:22.988Z,4.20
2018-12-29T14:10:52.151Z,4.20
2018-12-29T14:13:21.131Z,4.20
2018-12-29T14:15:50.064Z,4.30
2018-12-29T14:18:19.104Z,4.20
2018-12-29T14:20:48.069Z,4.20
2018-12-29T14:23:17.171Z,4.20
2018-12-29T14:25:46.152Z,4.20
2018-12-29T14:28:15.120Z,4.20
2018-12-29T14:30:44.111Z,4.20
2018-12-29T14:33:13.060Z,4.10
2018-12-29T14:35:42.239Z,4.10
2018-12-29T14:38:11.201Z,4.10
2018-12-29T14:40:40.227Z,4.10
2018-12-29T14:43:09.064Z,4.00
2018-12-29T14:45:37.988Z,4.00
2018-12-29T14:48:07.185Z,3.90
2018-12-29T14:50:36.183Z,3.90
2018-12-29T14:53:05.001Z,3.90
2018-12-29T14:55:34.043Z,3.90
2018-12-29T14:58:02.967Z,3.90
2018-12-29T15:00:32.344Z,3.80
2018-12-29T15:03:02.406Z,3.80
2018-12-29T15:05:31.379Z,3.80
2018-12-29T15:08:00.325Z,3.80
2018-12-29T15:10:29.566Z,3.80
2018-12-29T15:12:58.521Z,3.80
2018-12-29T15:15:28.009Z,3.70
2018-12-29T15:17:57.178Z,3.70
2018-12-29T15:20:26.567Z,3.70
2018-12-29T15:22:56.113Z,3.70
2018-12-29T15:25:25.195Z,3.70
2018-12-29T15:27:54.370Z,3.70
2018-12-29T15:30:23.639Z,3.70
2018-12-29T15:32:52.684Z,3.60
2018-12-29T15:35:22.316Z,3.60
2018-12-29T15:37:51.801Z,3.60
2018-12-29T15:40:21.102Z,3.70
2018-12-29T15:42:50.328Z,3.60
2018-12-29T15:45:19.409Z,3.60
2018-12-29T15:47:48.491Z,3.60
2018-12-29T15:50:17.330Z,3.60
2018-12-29T15:52:46.172Z,3.60
2018-12-29T15:55:15.256Z,3.60
2018-12-29T15:57:44.250Z,3.60
2018-12-29T16:00:13.188Z,3.60
2018-12-29T16:02:42.100Z,3.60
2018-12-29T16:05:11.067Z,3.60
2018-12-29T16:07:40.428Z,3.60
2018-12-29T16:10:09.387Z,3.70
2018-12-29T16:12:38.558Z,3.70
2018-12-29T16:15:08.032Z,3.70
2018-12-29T16:17:37.016Z,3.70
2018-12-29T16:20:06.836Z,3.70
2018-12-29T16:22:35.768Z,3.70
2018-12-29T16:25:04.878Z,3.70
2018-12-29T16:27:33.874Z,3.60
2018-12-29T16:30:02.783Z,3.60
2018-12-29T16:32:31.715Z,3.60
2018-12-29T16:35:00.537Z,3.60
2018-12-29T16:37:29.418Z,3.60
2018-12-29T16:39:58.386Z,3.60
2018-12-29T16:42:27.480Z,3.60
2018-12-29T16:44:56.316Z,3.60
2018-12-29T16:47:25.459Z,3.50
2018-12-29T16:49:54.413Z,3.40
2018-12-29T16:52:23.575Z,3.40
2018-12-29T16:54:53.349Z,3.30
2018-12-29T16:57:22.739Z,3.30
2018-12-29T16:59:51.575Z,3.30
2018-12-29T17:02:20.979Z,3.30
2018-12-29T17:04:49.804Z,3.30
2018-12-29T17:07:19.248Z,3.30
2018-12-29T17:09:48.092Z,3.30
2018-12-29T17:12:17.198Z,3.30
2018-12-29T17:14:46.127Z,3.30
2018-12-29T17:17:15.048Z,3.30
2018-12-29T17:19:44.263Z,3.20
2018-12-29T17:22:13.093Z,3.30
2018-12-29T17:24:41.948Z,3.20
2018-12-29T17:27:11.062Z,3.20
2018-12-29T17:29:40.313Z,3.20
2018-12-29T17:32:09.288Z,3.30
2018-12-29T17:34:38.170Z,3.30
2018-12-29T17:37:07.085Z,3.20
2018-12-29T17:39:36.297Z,3.20
2018-12-29T17:42:05.322Z,3.20
2018-12-29T17:44:34.251Z,3.20
2018-12-29T17:47:03.415Z,3.20
2018-12-29T17:49:32.572Z,3.20
2018-12-29T17:52:01.764Z,3.20
2018-12-29T17:54:30.642Z,3.20
2018-12-29T17:56:59.517Z,3.20
2018-12-29T17:59:28.430Z,3.20
2018-12-29T18:01:57.839Z,3.20
2018-12-29T18:04:27.112Z,3.20
2018-12-29T18:06:56.034Z,3.20
2018-12-29T18:09:25.011Z,3.20
2018-12-29T18:11:54.498Z,3.20
2018-12-29T18:14:23.397Z,3.20
2018-12-29T18:16:52.317Z,3.20
2018-12-29T18:19:21.203Z,3.20
2018-12-29T18:21:50.127Z,3.20
2018-12-29T18:24:19.024Z,3.30
2018-12-29T18:26:47.960Z,3.30
2018-12-29T18:29:16.778Z,3.30
2018-12-29T18:31:45.639Z,3.30
2018-12-29T18:34:14.516Z,3.30
2018-12-29T18:36:43.539Z,3.30
2018-12-29T18:39:12.787Z,3.30
2018-12-29T18:41:41.624Z,3.40
2018-12-29T18:44:11.004Z,3.40
2018-12-29T18:46:40.300Z,3.40
2018-12-29T18:49:09.275Z,3.40
2018-12-29T18:51:38.275Z,3.40
2018-12-29T18:54:07.379Z,3.40
2018-12-29T18:56:36.335Z,3.40
2018-12-29T18:59:05.241Z,3.50
2018-12-29T19:01:34.149Z,3.50
2018-12-29T19:04:03.053Z,3.50
2018-12-29T19:06:31.943Z,3.60
2018-12-29T19:09:00.843Z,3.60
2018-12-29T19:11:30.035Z,3.70
2018-12-29T19:13:58.879Z,3.70
2018-12-29T19:16:27.690Z,3.70
2018-12-29T19:18:56.958Z,3.80
2018-12-29T19:21:26.001Z,3.80
2018-12-29T19:23:55.614Z,3.90
2018-12-29T19:26:25.022Z,3.90
2018-12-29T19:28:54.087Z,4.00
2018-12-29T19:31:22.862Z,4.00
2018-12-29T19:33:51.664Z,4.00
2018-12-29T19:36:20.769Z,4.10
2018-12-29T19:38:49.828Z,4.10
2018-12-29T19:41:18.673Z,4.20
2018-12-29T19:43:47.841Z,4.20
2018-12-29T19:46:17.070Z,4.30
2018-12-29T19:48:45.858Z,4.30
2018-12-29T19:51:14.988Z,4.40
2018-12-29T19:53:44.154Z,4.40
2018-12-29T19:56:13.212Z,4.40
2018-12-29T19:58:41.990Z,4.50
2018-12-29T20:01:10.770Z,4.50
2018-12-29T20:03:39.546Z,4.60
2018-12-29T20:06:11.256Z,4.60
2018-12-29T20:08:38.877Z,4.60
2018-12-29T20:11:07.641Z,4.70
2018-12-29T20:13:36.416Z,4.70
2018-12-29T20:16:05.228Z,4.70
2018-12-29T20:18:34.006Z,4.80
2018-12-29T20:21:03.094Z,4.80
2018-12-29T20:23:32.147Z,4.90
2018-12-29T20:26:01.000Z,5.00
2018-12-29T20:28:30.129Z,5.10
2018-12-29T20:30:59.208Z,5.10
2018-12-29T20:33:27.998Z,5.20
2018-12-29T20:35:57.616Z,5.20
2018-12-29T20:38:26.506Z,5.30
2018-12-29T20:40:55.294Z,5.40
2018-12-29T20:43:24.063Z,5.50
2018-12-29T20:45:53.231Z,5.50
2018-12-29T20:48:22.001Z,5.60
2018-12-29T20:50:50.795Z,5.60
2018-12-29T20:53:19.574Z,5.70
2018-12-29T20:55:48.361Z,5.70
2018-12-29T20:58:17.130Z,5.70
2018-12-29T21:00:46.321Z,5.70
2018-12-29T21:03:15.390Z,5.80
2018-12-29T21:05:44.185Z,5.80
2018-12-29T21:08:12.953Z,5.90
2018-12-29T21:10:41.748Z,5.90
2018-12-29T21:13:10.788Z,5.90
2018-12-29T21:15:39.581Z,5.90
2018-12-29T21:18:08.348Z,5.90
2018-12-29T21:20:37.135Z,5.90
2018-12-29T21:23:06.001Z,5.90
2018-12-29T21:25:34.920Z,5.90
2018-12-29T21:28:04.111Z,5.90
2018-12-29T21:30:32.902Z,5.90
2018-12-29T21:33:01.768Z,6.00
2018-12-29T21:35:30.876Z,6.00
2018-12-29T21:37:59.657Z,6.00
2018-12-29T21:40:28.745Z,6.10
2018-12-29T21:42:57.756Z,6.10
2018-12-29T21:45:26.606Z,6.10
2018-12-29T21:47:55.413Z,6.10
2018-12-29T21:50:25.955Z,6.10
2018-12-29T21:52:54.710Z,6.00
2018-12-29T21:55:23.529Z,6.00
2018-12-29T21:57:52.306Z,6.00
2018-12-29T22:00:21.069Z,6.00
2018-12-29T22:02:49.863Z,6.00
2018-12-29T22:05:18.946Z,6.00
2018-12-29T22:07:47.730Z,6.00
2018-12-29T22:10:16.522Z,6.10
2018-12-29T22:12:45.309Z,6.00
2018-12-29T22:15:14.172Z,6.00
2018-12-29T22:17:42.952Z,6.10
2018-12-29T22:20:12.073Z,6.10
2018-12-29T22:22:40.861Z,6.10
2018-12-29T22:25:09.633Z,6.10
2018-12-29T22:27:38.714Z,6.10
2018-12-29T22:30:07.916Z,6.10
2018-12-29T22:32:37.010Z,6.10
2018-12-29T22:35:05.925Z,6.20
2018-12-29T22:37:34.717Z,6.20
2018-12-29T22:40:03.668Z,6.10
2018-12-29T22:42:32.470Z,6.10
2018-12-29T22:45:01.260Z,6.00
2018-12-29T22:47:30.117Z,6.00
2018-12-29T22:49:59.373Z,5.90
2018-12-29T22:52:28.297Z,5.90
2018-12-29T22:54:57.169Z,5.90
2018-12-29T22:57:26.048Z,5.80
2018-12-29T22:59:55.311Z,5.70
2018-12-29T23:02:24.161Z,5.70
2018-12-29T23:04:52.926Z,5.70
2018-12-29T23:07:22.089Z,5.60
2018-12-29T23:09:50.879Z,5.50
2018-12-29T23:12:19.809Z,5.30
2018-12-29T23:14:48.627Z,5.10
2018-12-29T23:17:17.429Z,5.10
2018-12-29T23:19:46.222Z,5.10
2018-12-29T23:22:15.406Z,4.90
2018-12-29T23:24:44.189Z,4.90
2018-12-29T23:27:12.962Z,4.80
2018-12-29T23:29:41.826Z,4.90
2018-12-29T23:32:10.930Z,4.80
2018-12-29T23:34:40.001Z,4.90
2018-12-29T23:37:09.048Z,5.00
2018-12-29T23:39:37.893Z,5.00
2018-12-29T23:42:06.944Z,5.10
2018-12-29T23:44:35.734Z,5.10
2018-12-29T23:47:04.740Z,5.20
2018-12-29T23:49:33.881Z,5.30
2018-12-29T23:52:03.030Z,5.30
2018-12-29T23:54:31.818Z,5.30
2018-12-29T23:57:01.273Z,5.30
2018-12-29T23:59:30.130Z,5.40
